Sheldon, IA

11:06 AM CST on November 24, 2017 (GMT -0600)
Sheldon Municipal

Weather History for KSHL - November, 2014

Change the Weather History Date:

Thursday, November 6, 2014

  Actual Average Record
Temperature  
Mean Temperature 38 °F -  
Max Temperature 48 °F 48 °F 71 °F (2001)
Min Temperature 28 °F 27 °F -9 °F (1991)
Degree Days  
Heating Degree Days 27    
Moisture  
Dew Point 29 °F    
Average Humidity 74    
Maximum Humidity 93    
Minimum Humidity 46    
Precipitation  
Precipitation 0.00 in - - ()
Sea Level Pressure  
Sea Level Pressure 30.26 in    
Wind  
Wind Speed 14 mph (NNW)    
Max Wind Speed 25 mph    
Max Gust Speed 37 mph    
Visibility 10 miles    
Events      
Averages and records for this station are not official NWS values.
T = Trace of Precipitation, MM = Missing Value Source: NWS Daily Summary

Daily Weather History Graph

Daily Weather History Graph

Search for Another Location

Airport or City:

Trip Planner

Search our weather history database for the weather conditions in past years. The results will help you decide how hot, cold, wet, or windy it might be!

Date:

Astronomy

Nov. 06, 2014 Rise Set
Actual Time 7:04 AM CST 5:08 PM CST
Civil Twilight 6:34 AM CST 5:38 PM CST
Nautical Twilight 6:00 AM CST 6:12 PM CST
Astronomical Twilight 5:27 AM CST 6:45 PM CST
Moon 5:17 PM CST (11/6) 6:36 AM CST (11/6)
Length of Visible Light 11h 03m
Length of Day
10h 03m
Full, 100% of the Moon is Illuminated
Nov 6
Full
Nov 6
Full
Nov 14
Last Quarter
Nov 22
New
Nov 29
First Quarter

Hourly Weather History & Observations

Time (CST) Temp. Windchill Dew Point Humidity Pressure Visibility Wind Dir Wind Speed Gust Speed Precip Events Conditions
12:15 AM 39.2 °F 29.3 °F 33.8 °F 81% 30.11 in 10.0 mi NNW 20.7 mph 32.2 mph N/A   Overcast
12:35 AM 37.4 °F 25.9 °F 32.0 °F 81% 30.13 in 10.0 mi NNW 25.3 mph 36.8 mph N/A   Overcast
12:55 AM 37.4 °F 26.9 °F 32.0 °F 81% 30.14 in 10.0 mi NNW 20.7 mph 31.1 mph N/A   Overcast
1:15 AM 37.4 °F 27.8 °F 32.0 °F 81% 30.14 in 10.0 mi NNW 17.3 mph 27.6 mph N/A   Overcast
1:35 AM 37.4 °F 27.8 °F 32.0 °F 81% 30.15 in 10.0 mi NNW 17.3 mph 29.9 mph N/A   Overcast
1:55 AM 37.4 °F 26.6 °F 32.0 °F 81% 30.16 in 10.0 mi NNW 21.9 mph - N/A   Overcast
2:15 AM 37.4 °F 28.2 °F 30.2 °F 75% 30.17 in 10.0 mi NNW 16.1 mph 24.2 mph N/A   Overcast
2:35 AM 35.6 °F 25.5 °F 30.2 °F 81% 30.20 in 10.0 mi NNW 17.3 mph - N/A   Overcast
2:55 AM 35.6 °F 25.9 °F 30.2 °F 81% 30.21 in 10.0 mi NNW 16.1 mph 24.2 mph N/A   Overcast
3:15 AM 35.6 °F 25.5 °F 30.2 °F 81% 30.21 in 10.0 mi NNW 17.3 mph 25.3 mph N/A   Overcast
3:35 AM 35.6 °F 25.2 °F 30.2 °F 81% 30.23 in - NNW 18.4 mph 27.6 mph N/A   Overcast
3:55 AM 35.6 °F 27.1 °F 30.2 °F 81% 30.23 in 10.0 mi NNW 12.7 mph 19.6 mph N/A   Overcast
4:15 AM 35.6 °F 27.5 °F 28.4 °F 75% 30.24 in 10.0 mi NNW 11.5 mph 23.0 mph N/A   Overcast
4:35 AM 35.6 °F 24.8 °F 28.4 °F 75% 30.25 in 10.0 mi NNW 19.6 mph - N/A   Overcast
4:55 AM 33.8 °F 25.3 °F 28.4 °F 81% 30.26 in 10.0 mi NNW 11.5 mph - N/A   Overcast
5:15 AM 32.0 °F 23.6 °F 28.4 °F 87% 30.26 in 10.0 mi NW 10.4 mph 17.3 mph N/A   Partly Cloudy
5:35 AM 32.0 °F 24.8 °F 28.4 °F 87% 30.27 in 10.0 mi NNW 8.1 mph 13.8 mph N/A   Clear
5:55 AM 32.0 °F 24.2 °F 28.4 °F 87% 30.28 in 10.0 mi NW 9.2 mph 16.1 mph N/A   Clear
6:15 AM 30.2 °F 21.9 °F 28.4 °F 93% 30.28 in 10.0 mi NW 9.2 mph - N/A   Clear
6:35 AM 30.2 °F 22.6 °F 28.4 °F 93% 30.29 in 10.0 mi NW 8.1 mph - N/A   Clear
6:55 AM 30.2 °F 21.3 °F 26.6 °F 86% 30.30 in 10.0 mi NW 10.4 mph - N/A   Clear
7:15 AM 30.2 °F 21.9 °F 28.4 °F 93% 30.31 in 10.0 mi NW 9.2 mph - N/A   Clear
7:35 AM 32.0 °F 23.6 °F 28.4 °F 87% 30.31 in 10.0 mi NW 10.4 mph - N/A   Clear
7:55 AM 32.0 °F 24.8 °F 28.4 °F 87% 30.32 in 10.0 mi NW 8.1 mph 15.0 mph N/A   Clear
8:15 AM 33.8 °F 27.7 °F 30.2 °F 87% 30.32 in 10.0 mi NW 6.9 mph - N/A   Clear
8:55 AM 35.6 °F 27.1 °F 30.2 °F 81% 30.33 in 10.0 mi NW 12.7 mph - N/A   Clear
9:15 AM 37.4 °F 29.3 °F 30.2 °F 75% 30.34 in 10.0 mi NW 12.7 mph - N/A   Partly Cloudy
9:35 AM 39.2 °F 30.5 °F 30.2 °F 70% 30.34 in 10.0 mi NW 16.1 mph 21.9 mph N/A   Partly Cloudy
9:55 AM 39.2 °F 30.5 °F 30.2 °F 70% 30.34 in 10.0 mi NW 16.1 mph 23.0 mph N/A   Scattered Clouds
10:15 AM 39.2 °F 30.5 °F 30.2 °F 70% 30.35 in 10.0 mi NW 16.1 mph 23.0 mph N/A   Scattered Clouds
10:35 AM 41.0 °F 33.1 °F 30.2 °F 65% 30.34 in 10.0 mi NW 15.0 mph 21.9 mph N/A   Partly Cloudy
10:55 AM 41.0 °F 33.9 °F 30.2 °F 65% 30.35 in 10.0 mi NW 12.7 mph 19.6 mph N/A   Partly Cloudy
11:15 AM 42.8 °F 36.2 °F 30.2 °F 61% 30.35 in 10.0 mi NNW 12.7 mph 19.6 mph N/A   Partly Cloudy
11:35 AM 44.6 °F 39.7 °F 30.2 °F 57% 30.34 in 10.0 mi NW 9.2 mph 18.4 mph N/A   Clear
11:55 AM 44.6 °F 39.2 °F 30.2 °F 57% 30.34 in 10.0 mi NW 10.4 mph 18.4 mph N/A   Partly Cloudy
12:15 PM 44.6 °F 38.4 °F 30.2 °F 57% 30.33 in 10.0 mi NNW 12.7 mph 19.6 mph N/A   Clear
12:35 PM 44.6 °F 39.2 °F 30.2 °F 57% 30.32 in 10.0 mi NW 10.4 mph 19.6 mph N/A   Clear
12:55 PM 46.4 °F 40.1 °F 30.2 °F 53% 30.32 in 10.0 mi NW 15.0 mph - N/A   Clear
1:15 PM 46.4 °F 40.7 °F 30.2 °F 53% 30.32 in 10.0 mi NW 12.7 mph 19.6 mph N/A   Clear
1:35 PM 48.2 °F - 30.2 °F 50% 30.31 in 10.0 mi NNW 11.5 mph 18.4 mph N/A   Clear
1:55 PM 48.2 °F - 30.2 °F 50% 30.30 in 10.0 mi NNW 15.0 mph - N/A   Clear
2:15 PM 48.2 °F - 30.2 °F 50% 30.30 in 10.0 mi NNW 11.5 mph 18.4 mph N/A   Clear
2:35 PM 48.2 °F - 30.2 °F 50% 30.30 in 10.0 mi NW 10.4 mph 17.3 mph N/A   Clear
2:55 PM 48.2 °F - 30.2 °F 50% 30.29 in 10.0 mi NNW 9.2 mph 15.0 mph N/A   Clear
3:15 PM 48.2 °F - 30.2 °F 50% 30.29 in 10.0 mi NW 8.1 mph - N/A   Partly Cloudy
3:35 PM 48.2 °F - 30.2 °F 50% 30.29 in 10.0 mi NNW 9.2 mph 15.0 mph N/A   Clear
3:55 PM 48.2 °F - 28.4 °F 46% 30.28 in 10.0 mi NNW 9.2 mph 15.0 mph N/A   Clear
4:15 PM 46.4 °F 42.9 °F 28.4 °F 50% 30.27 in 10.0 mi NNW 6.9 mph - N/A   Clear
4:35 PM 46.4 °F 44.3 °F 28.4 °F 50% 30.27 in 10.0 mi NNW 4.6 mph - N/A   Clear
4:55 PM 42.8 °F - 28.4 °F 57% 30.27 in 10.0 mi Calm Calm - N/A   Clear
5:15 PM 41.0 °F - 28.4 °F 61% 30.27 in 10.0 mi Calm Calm - N/A   Clear
5:35 PM 37.4 °F - 28.4 °F 70% 30.26 in 10.0 mi Calm Calm - N/A   Clear
5:55 PM 33.8 °F 30.8 °F 26.6 °F 75% 30.26 in 10.0 mi South 3.5 mph - N/A   Clear
6:15 PM 35.6 °F - 28.4 °F 75% 30.26 in 10.0 mi Calm Calm - N/A   Clear
6:35 PM 33.8 °F 30.8 °F 28.4 °F 81% 30.25 in 10.0 mi SSE 3.5 mph - N/A   Clear
6:55 PM 32.0 °F - 26.6 °F 80% 30.24 in 9.0 mi Calm Calm - N/A   Partly Cloudy
7:35 PM 28.4 °F - 24.8 °F 86% 30.25 in 7.0 mi Calm Calm - N/A   Clear
7:55 PM 30.2 °F 26.7 °F 24.8 °F 80% 30.24 in 10.0 mi SE 3.5 mph - N/A   Clear
8:15 PM 32.0 °F 24.8 °F 26.6 °F 80% 30.24 in 10.0 mi ESE 8.1 mph - N/A   Clear
8:35 PM 30.2 °F 24.3 °F 24.8 °F 80% 30.23 in 10.0 mi ESE 5.8 mph - N/A   Clear
8:55 PM 30.2 °F 22.6 °F 26.6 °F 86% 30.22 in 10.0 mi ESE 8.1 mph - N/A   Clear
9:15 PM 30.2 °F 22.6 °F 26.6 °F 86% 30.22 in 10.0 mi ESE 8.1 mph - N/A   Clear
9:35 PM 30.2 °F 23.4 °F 26.6 °F 86% 30.21 in 10.0 mi SE 6.9 mph - N/A   Clear
9:55 PM 30.2 °F 23.4 °F 26.6 °F 86% 30.21 in - SE 6.9 mph - N/A   Clear
10:15 PM 30.2 °F 23.4 °F 26.6 °F 86% 30.19 in 10.0 mi ESE 6.9 mph - N/A   Clear
10:35 PM 30.2 °F 24.3 °F 26.6 °F 86% 30.19 in 10.0 mi SE 5.8 mph - N/A   Clear
10:55 PM 30.2 °F 23.4 °F 26.6 °F 86% 30.18 in 10.0 mi ESE 6.9 mph - N/A   Clear
11:15 PM 30.2 °F 23.4 °F 26.6 °F 86% 30.18 in 10.0 mi ESE 6.9 mph - N/A   Clear
11:35 PM 30.2 °F 23.4 °F 26.6 °F 86% 30.19 in 10.0 mi ESE 6.9 mph - N/A   Clear
11:55 PM 30.2 °F 24.3 °F 26.6 °F 86% 30.17 in 10.0 mi SE 5.8 mph - N/A   Clear